sensor_id;sensor_type;location;lat;lon;timestamp;temperature;humidity
42339;DHT22;27993;45.392;10.918;2022-09-09T00:02:01;22.50;99.90
42339;DHT22;27993;45.392;10.918;2022-09-09T00:04:35;22.60;99.90
42339;DHT22;27993;45.392;10.918;2022-09-09T00:07:23;22.60;99.90
42339;DHT22;27993;45.392;10.918;2022-09-09T00:12:34;22.40;99.90
42339;DHT22;27993;45.392;10.918;2022-09-09T00:15:14;22.30;99.90
42339;DHT22;27993;45.392;10.918;2022-09-09T00:17:53;21.90;99.90
42339;DHT22;27993;45.392;10.918;2022-09-09T00:23:30;21.60;99.90
42339;DHT22;27993;45.392;10.918;2022-09-09T00:32:12;21.60;99.90
42339;DHT22;27993;45.392;10.918;2022-09-09T00:34:49;21.60;99.90
42339;DHT22;27993;45.392;10.918;2022-09-09T00:37:22;21.50;99.90
42339;DHT22;27993;45.392;10.918;2022-09-09T00:40:00;21.40;99.90
42339;DHT22;27993;45.392;10.918;2022-09-09T00:42:42;21.40;99.90
42339;DHT22;27993;45.392;10.918;2022-09-09T00:51:46;21.30;99.90
42339;DHT22;27993;45.392;10.918;2022-09-09T00:57:32;21.40;99.90
42339;DHT22;27993;45.392;10.918;2022-09-09T01:00:19;21.50;99.90
42339;DHT22;27993;45.392;10.918;2022-09-09T01:08:42;21.50;99.90
42339;DHT22;27993;45.392;10.918;2022-09-09T01:11:22;21.40;99.90
42339;DHT22;27993;45.392;10.918;2022-09-09T01:14:01;21.30;99.90
42339;DHT22;27993;45.392;10.918;2022-09-09T01:16:34;21.30;99.90
42339;DHT22;27993;45.392;10.918;2022-09-09T01:19:05;21.10;99.90
42339;DHT22;27993;45.392;10.918;2022-09-09T01:22:05;20.90;99.90
42339;DHT22;27993;45.392;10.918;2022-09-09T01:24:48;21.00;99.90
42339;DHT22;27993;45.392;10.918;2022-09-09T01:27:23;21.20;99.90
42339;DHT22;27993;45.392;10.918;2022-09-09T01:29:55;21.20;99.90
42339;DHT22;27993;45.392;10.918;2022-09-09T01:32:44;21.20;99.90
42339;DHT22;27993;45.392;10.918;2022-09-09T01:35:44;21.10;99.90
42339;DHT22;27993;45.392;10.918;2022-09-09T01:38:15;21.20;99.90
42339;DHT22;27993;45.392;10.918;2022-09-09T01:40:46;21.10;99.90
42339;DHT22;27993;45.392;10.918;2022-09-09T01:43:18;21.10;99.90
42339;DHT22;27993;45.392;10.918;2022-09-09T01:45:53;21.00;99.90
42339;DHT22;27993;45.392;10.918;2022-09-09T01:48:25;21.10;99.90
42339;DHT22;27993;45.392;10.918;2022-09-09T01:50:56;21.20;99.90
42339;DHT22;27993;45.392;10.918;2022-09-09T01:53:27;21.20;99.90
42339;DHT22;27993;45.392;10.918;2022-09-09T01:56:03;21.20;99.90
42339;DHT22;27993;45.392;10.918;2022-09-09T02:04:01;21.20;99.90
42339;DHT22;27993;45.392;10.918;2022-09-09T02:06:36;21.10;99.90
42339;DHT22;27993;45.392;10.918;2022-09-09T02:09:10;21.30;99.90
42339;DHT22;27993;45.392;10.918;2022-09-09T02:11:44;21.40;99.90
42339;DHT22;27993;45.392;10.918;2022-09-09T02:14:27;21.30;99.90
42339;DHT22;27993;45.392;10.918;2022-09-09T02:17:09;21.40;99.90
42339;DHT22;27993;45.392;10.918;2022-09-09T02:19:48;21.10;99.90
42339;DHT22;27993;45.392;10.918;2022-09-09T02:22:22;21.10;99.90
42339;DHT22;27993;45.392;10.918;2022-09-09T02:24:56;21.00;99.90
42339;DHT22;27993;45.392;10.918;2022-09-09T02:27:29;20.90;99.90
42339;DHT22;27993;45.392;10.918;2022-09-09T02:30:01;20.80;99.90
42339;DHT22;27993;45.392;10.918;2022-09-09T02:32:34;20.90;99.90
42339;DHT22;27993;45.392;10.918;2022-09-09T02:35:09;20.80;99.90
42339;DHT22;27993;45.392;10.918;2022-09-09T02:37:42;20.80;99.90
42339;DHT22;27993;45.392;10.918;2022-09-09T02:40:16;21.00;99.90
42339;DHT22;27993;45.392;10.918;2022-09-09T02:42:48;21.00;99.90
42339;DHT22;27993;45.392;10.918;2022-09-09T02:45:27;20.90;99.90
42339;DHT22;27993;45.392;10.918;2022-09-09T02:53:39;21.00;99.90
42339;DHT22;27993;45.392;10.918;2022-09-09T02:56:17;21.20;99.90
42339;DHT22;27993;45.392;10.918;2022-09-09T02:58:49;21.30;99.90
42339;DHT22;27993;45.392;10.918;2022-09-09T03:01:22;21.20;99.90
42339;DHT22;27993;45.392;10.918;2022-09-09T03:03:53;21.20;99.90
42339;DHT22;27993;45.392;10.918;2022-09-09T03:06:25;21.10;99.90
42339;DHT22;27993;45.392;10.918;2022-09-09T03:08:55;21.20;99.90
42339;DHT22;27993;45.392;10.918;2022-09-09T03:11:30;21.10;99.90
42339;DHT22;27993;45.392;10.918;2022-09-09T03:14:02;21.10;99.90
42339;DHT22;27993;45.392;10.918;2022-09-09T03:16:32;20.90;99.90
42339;DHT22;27993;45.392;10.918;2022-09-09T03:19:04;20.80;99.90
42339;DHT22;27993;45.392;10.918;2022-09-09T03:21:36;20.60;99.90
42339;DHT22;27993;45.392;10.918;2022-09-09T03:24:07;20.50;99.90
42339;DHT22;27993;45.392;10.918;2022-09-09T03:26:37;20.50;99.90
42339;DHT22;27993;45.392;10.918;2022-09-09T03:29:08;20.60;99.90
42339;DHT22;27993;45.392;10.918;2022-09-09T03:31:39;20.70;99.90
42339;DHT22;27993;45.392;10.918;2022-09-09T03:34:10;20.80;99.90
42339;DHT22;27993;45.392;10.918;2022-09-09T03:36:41;20.70;99.90
42339;DHT22;27993;45.392;10.918;2022-09-09T03:39:11;20.60;99.90
42339;DHT22;27993;45.392;10.918;2022-09-09T03:41:42;20.70;99.90
42339;DHT22;27993;45.392;10.918;2022-09-09T03:44:14;20.70;99.90
42339;DHT22;27993;45.392;10.918;2022-09-09T03:46:45;20.80;99.90
42339;DHT22;27993;45.392;10.918;2022-09-09T03:49:16;20.80;99.90
42339;DHT22;27993;45.392;10.918;2022-09-09T03:51:47;20.80;99.90
42339;DHT22;27993;45.392;10.918;2022-09-09T03:54:17;20.90;99.90
42339;DHT22;27993;45.392;10.918;2022-09-09T03:56:48;20.80;99.90
42339;DHT22;27993;45.392;10.918;2022-09-09T03:59:18;20.80;99.90
42339;DHT22;27993;45.392;10.918;2022-09-09T04:01:49;21.00;99.90
42339;DHT22;27993;45.392;10.918;2022-09-09T04:04:20;21.00;99.90
42339;DHT22;27993;45.392;10.918;2022-09-09T04:06:51;21.00;99.90
42339;DHT22;27993;45.392;10.918;2022-09-09T04:09:21;20.80;99.90
42339;DHT22;27993;45.392;10.918;2022-09-09T04:11:52;20.90;99.90
42339;DHT22;27993;45.392;10.918;2022-09-09T04:14:23;20.60;99.90
42339;DHT22;27993;45.392;10.918;2022-09-09T04:16:56;20.50;99.90
42339;DHT22;27993;45.392;10.918;2022-09-09T04:19:27;20.50;99.90
42339;DHT22;27993;45.392;10.918;2022-09-09T04:21:58;20.50;99.90
42339;DHT22;27993;45.392;10.918;2022-09-09T04:24:29;20.70;99.90
42339;DHT22;27993;45.392;10.918;2022-09-09T04:27:00;20.80;99.90
42339;DHT22;27993;45.392;10.918;2022-09-09T04:29:30;20.90;99.90
42339;DHT22;27993;45.392;10.918;2022-09-09T04:32:01;20.90;99.90
42339;DHT22;27993;45.392;10.918;2022-09-09T04:34:31;21.00;99.90
42339;DHT22;27993;45.392;10.918;2022-09-09T04:37:03;20.80;99.90
42339;DHT22;27993;45.392;10.918;2022-09-09T04:39:33;20.60;99.90
42339;DHT22;27993;45.392;10.918;2022-09-09T04:42:04;20.60;99.90
42339;DHT22;27993;45.392;10.918;2022-09-09T04:44:35;20.50;99.90
42339;DHT22;27993;45.392;10.918;2022-09-09T04:47:06;20.70;99.90
42339;DHT22;27993;45.392;10.918;2022-09-09T04:49:36;20.70;99.90
42339;DHT22;27993;45.392;10.918;2022-09-09T04:52:07;20.70;99.90
42339;DHT22;27993;45.392;10.918;2022-09-09T04:54:38;20.70;99.90
42339;DHT22;27993;45.392;10.918;2022-09-09T04:57:10;20.80;99.90
42339;DHT22;27993;45.392;10.918;2022-09-09T04:59:41;20.90;99.90
42339;DHT22;27993;45.392;10.918;2022-09-09T05:02:11;21.00;99.90
42339;DHT22;27993;45.392;10.918;2022-09-09T05:04:42;21.00;99.90
42339;DHT22;27993;45.392;10.918;2022-09-09T05:07:12;21.00;99.90
42339;DHT22;27993;45.392;10.918;2022-09-09T05:09:44;21.00;99.90
42339;DHT22;27993;45.392;10.918;2022-09-09T05:12:16;20.80;99.90
42339;DHT22;27993;45.392;10.918;2022-09-09T05:14:49;20.80;99.90
42339;DHT22;27993;45.392;10.918;2022-09-09T05:17:20;21.00;99.90
42339;DHT22;27993;45.392;10.918;2022-09-09T05:19:51;21.10;99.90
42339;DHT22;27993;45.392;10.918;2022-09-09T05:22:21;21.40;99.90
42339;DHT22;27993;45.392;10.918;2022-09-09T05:24:53;21.50;99.90
42339;DHT22;27993;45.392;10.918;2022-09-09T05:27:23;21.60;99.90
42339;DHT22;27993;45.392;10.918;2022-09-09T05:29:54;21.70;99.90
42339;DHT22;27993;45.392;10.918;2022-09-09T05:32:25;22.00;99.90
42339;DHT22;27993;45.392;10.918;2022-09-09T05:34:56;22.30;99.90
42339;DHT22;27993;45.392;10.918;2022-09-09T05:37:27;22.50;99.90
42339;DHT22;27993;45.392;10.918;2022-09-09T05:39:57;22.70;99.90
42339;DHT22;27993;45.392;10.918;2022-09-09T05:42:31;23.10;99.90
42339;DHT22;27993;45.392;10.918;2022-09-09T05:45:02;23.30;99.90
42339;DHT22;27993;45.392;10.918;2022-09-09T05:47:34;23.50;99.90
42339;DHT22;27993;45.392;10.918;2022-09-09T05:50:05;23.80;99.90
42339;DHT22;27993;45.392;10.918;2022-09-09T05:52:35;24.20;99.90
42339;DHT22;27993;45.392;10.918;2022-09-09T05:55:07;24.40;99.90
42339;DHT22;27993;45.392;10.918;2022-09-09T05:57:37;24.60;99.90
42339;DHT22;27993;45.392;10.918;2022-09-09T06:00:09;25.00;99.90
42339;DHT22;27993;45.392;10.918;2022-09-09T06:02:41;25.20;99.90
42339;DHT22;27993;45.392;10.918;2022-09-09T06:05:11;25.60;99.90
42339;DHT22;27993;45.392;10.918;2022-09-09T06:07:43;25.90;99.90
42339;DHT22;27993;45.392;10.918;2022-09-09T06:10:15;26.10;99.90
42339;DHT22;27993;45.392;10.918;2022-09-09T06:12:45;26.30;99.90
42339;DHT22;27993;45.392;10.918;2022-09-09T06:15:16;26.40;99.90
42339;DHT22;27993;45.392;10.918;2022-09-09T06:17:47;26.60;99.90
42339;DHT22;27993;45.392;10.918;2022-09-09T06:20:24;26.80;99.90
42339;DHT22;27993;45.392;10.918;2022-09-09T06:22:55;27.00;99.90
42339;DHT22;27993;45.392;10.918;2022-09-09T06:25:25;27.00;99.90
42339;DHT22;27993;45.392;10.918;2022-09-09T06:27:56;27.00;99.90
42339;DHT22;27993;45.392;10.918;2022-09-09T06:30:27;27.50;99.90
42339;DHT22;27993;45.392;10.918;2022-09-09T06:32:57;27.30;99.90
42339;DHT22;27993;45.392;10.918;2022-09-09T06:35:28;27.40;99.90
42339;DHT22;27993;45.392;10.918;2022-09-09T06:37:59;27.90;99.90
42339;DHT22;27993;45.392;10.918;2022-09-09T06:40:29;28.10;99.90
42339;DHT22;27993;45.392;10.918;2022-09-09T06:43:00;28.60;99.90
42339;DHT22;27993;45.392;10.918;2022-09-09T06:45:32;29.00;99.90
42339;DHT22;27993;45.392;10.918;2022-09-09T06:48:02;29.50;99.90
42339;DHT22;27993;45.392;10.918;2022-09-09T06:50:33;29.20;99.90
42339;DHT22;27993;45.392;10.918;2022-09-09T06:53:03;29.20;99.90
42339;DHT22;27993;45.392;10.918;2022-09-09T06:55:34;28.70;99.90
42339;DHT22;27993;45.392;10.918;2022-09-09T06:58:08;28.60;99.90
42339;DHT22;27993;45.392;10.918;2022-09-09T07:00:39;28.50;99.90
42339;DHT22;27993;45.392;10.918;2022-09-09T07:03:10;27.90;99.90
42339;DHT22;27993;45.392;10.918;2022-09-09T07:05:41;28.30;99.90
42339;DHT22;27993;45.392;10.918;2022-09-09T07:08:11;28.50;99.90
42339;DHT22;27993;45.392;10.918;2022-09-09T07:10:42;28.30;99.90
42339;DHT22;27993;45.392;10.918;2022-09-09T07:13:14;28.10;99.90
42339;DHT22;27993;45.392;10.918;2022-09-09T07:15:45;28.30;99.90
42339;DHT22;27993;45.392;10.918;2022-09-09T07:18:16;28.20;99.90
42339;DHT22;27993;45.392;10.918;2022-09-09T07:20:54;28.60;99.90
42339;DHT22;27993;45.392;10.918;2022-09-09T07:23:25;28.70;99.90
42339;DHT22;27993;45.392;10.918;2022-09-09T07:25:57;28.80;99.90
42339;DHT22;27993;45.392;10.918;2022-09-09T07:28:28;28.90;99.90
42339;DHT22;27993;45.392;10.918;2022-09-09T07:31:02;29.20;99.90
42339;DHT22;27993;45.392;10.918;2022-09-09T07:33:34;29.40;99.90
42339;DHT22;27993;45.392;10.918;2022-09-09T07:36:26;29.30;99.90
42339;DHT22;27993;45.392;10.918;2022-09-09T07:39:16;28.50;99.90
42339;DHT22;27993;45.392;10.918;2022-09-09T07:41:48;28.80;99.90
42339;DHT22;27993;45.392;10.918;2022-09-09T07:44:22;28.50;99.90
42339;DHT22;27993;45.392;10.918;2022-09-09T07:46:53;28.70;99.90
42339;DHT22;27993;45.392;10.918;2022-09-09T07:49:24;28.70;99.90
42339;DHT22;27993;45.392;10.918;2022-09-09T07:51:55;28.60;99.90
42339;DHT22;27993;45.392;10.918;2022-09-09T07:54:25;28.50;99.90
42339;DHT22;27993;45.392;10.918;2022-09-09T07:56:56;29.10;99.90
42339;DHT22;27993;45.392;10.918;2022-09-09T07:59:26;29.40;99.90
42339;DHT22;27993;45.392;10.918;2022-09-09T08:01:58;29.70;99.90
42339;DHT22;27993;45.392;10.918;2022-09-09T08:04:28;29.60;99.90
42339;DHT22;27993;45.392;10.918;2022-09-09T08:07:00;29.60;99.90
42339;DHT22;27993;45.392;10.918;2022-09-09T08:09:33;29.40;99.90
42339;DHT22;27993;45.392;10.918;2022-09-09T08:12:04;29.20;99.90
42339;DHT22;27993;45.392;10.918;2022-09-09T08:14:36;29.60;99.90
42339;DHT22;27993;45.392;10.918;2022-09-09T08:17:06;29.90;99.90
42339;DHT22;27993;45.392;10.918;2022-09-09T08:19:37;29.40;99.90
42339;DHT22;27993;45.392;10.918;2022-09-09T08:22:08;29.40;99.90
42339;DHT22;27993;45.392;10.918;2022-09-09T08:24:38;29.50;99.90
42339;DHT22;27993;45.392;10.918;2022-09-09T08:27:09;30.00;99.90
42339;DHT22;27993;45.392;10.918;2022-09-09T08:29:40;29.80;99.90
42339;DHT22;27993;45.392;10.918;2022-09-09T08:32:10;30.30;99.90
42339;DHT22;27993;45.392;10.918;2022-09-09T08:34:41;30.00;99.90
42339;DHT22;27993;45.392;10.918;2022-09-09T08:37:12;29.90;99.90
42339;DHT22;27993;45.392;10.918;2022-09-09T08:39:42;30.00;99.90
42339;DHT22;27993;45.392;10.918;2022-09-09T08:42:23;30.30;99.90
42339;DHT22;27993;45.392;10.918;2022-09-09T08:47:43;31.30;99.90
42339;DHT22;27993;45.392;10.918;2022-09-09T08:50:25;30.50;99.90
42339;DHT22;27993;45.392;10.918;2022-09-09T08:53:01;30.50;99.90
42339;DHT22;27993;45.392;10.918;2022-09-09T08:55:54;30.10;99.90
42339;DHT22;27993;45.392;10.918;2022-09-09T08:58:34;30.60;99.90
42339;DHT22;27993;45.392;10.918;2022-09-09T09:09:01;30.70;99.90
42339;DHT22;27993;45.392;10.918;2022-09-09T09:11:38;32.30;99.90
42339;DHT22;27993;45.392;10.918;2022-09-09T09:14:18;32.80;99.90
42339;DHT22;27993;45.392;10.918;2022-09-09T09:17:00;31.60;99.90
42339;DHT22;27993;45.392;10.918;2022-09-09T09:19:33;32.80;99.90
42339;DHT22;27993;45.392;10.918;2022-09-09T09:25:08;31.10;99.90
42339;DHT22;27993;45.392;10.918;2022-09-09T09:28:00;30.40;99.90
42339;DHT22;27993;45.392;10.918;2022-09-09T09:30:40;29.70;99.90
42339;DHT22;27993;45.392;10.918;2022-09-09T09:35:42;30.40;99.90
42339;DHT22;27993;45.392;10.918;2022-09-09T09:38:17;30.50;99.90
42339;DHT22;27993;45.392;10.918;2022-09-09T09:40:53;30.90;99.90
42339;DHT22;27993;45.392;10.918;2022-09-09T09:43:33;30.10;99.90
42339;DHT22;27993;45.392;10.918;2022-09-09T09:46:04;29.60;99.90
42339;DHT22;27993;45.392;10.918;2022-09-09T09:48:35;29.50;99.90
42339;DHT22;27993;45.392;10.918;2022-09-09T09:51:11;29.30;99.90
42339;DHT22;27993;45.392;10.918;2022-09-09T09:53:45;29.20;99.90
42339;DHT22;27993;45.392;10.918;2022-09-09T09:56:16;28.40;99.90
42339;DHT22;27993;45.392;10.918;2022-09-09T09:58:51;27.50;99.90
42339;DHT22;27993;45.392;10.918;2022-09-09T10:01:27;26.80;99.90
42339;DHT22;27993;45.392;10.918;2022-09-09T10:04:03;26.00;99.90
42339;DHT22;27993;45.392;10.918;2022-09-09T10:06:43;25.20;99.90
42339;DHT22;27993;45.392;10.918;2022-09-09T10:09:40;24.70;99.90
42339;DHT22;27993;45.392;10.918;2022-09-09T10:15:07;22.00;99.90
42339;DHT22;27993;45.392;10.918;2022-09-09T10:29:30;22.20;99.90
42339;DHT22;27993;45.392;10.918;2022-09-09T10:32:30;22.00;99.90
42339;DHT22;27993;45.392;10.918;2022-09-09T10:38:10;22.00;99.90
42339;DHT22;27993;45.392;10.918;2022-09-09T10:41:18;21.70;99.90
42339;DHT22;27993;45.392;10.918;2022-09-09T10:44:06;21.50;99.90
42339;DHT22;27993;45.392;10.918;2022-09-09T10:47:16;21.30;99.90
42339;DHT22;27993;45.392;10.918;2022-09-09T10:53:18;21.00;99.90
42339;DHT22;27993;45.392;10.918;2022-09-09T10:55:55;20.90;99.90
42339;DHT22;27993;45.392;10.918;2022-09-09T10:58:28;20.90;99.90
42339;DHT22;27993;45.392;10.918;2022-09-09T11:01:12;21.00;99.90
42339;DHT22;27993;45.392;10.918;2022-09-09T11:03:52;20.90;99.90
42339;DHT22;27993;45.392;10.918;2022-09-09T11:06:28;20.90;99.90
42339;DHT22;27993;45.392;10.918;2022-09-09T11:09:02;20.70;99.90
42339;DHT22;27993;45.392;10.918;2022-09-09T11:11:56;20.90;99.90
42339;DHT22;27993;45.392;10.918;2022-09-09T11:14:36;21.30;99.90
42339;DHT22;27993;45.392;10.918;2022-09-09T11:17:15;21.80;99.90
42339;DHT22;27993;45.392;10.918;2022-09-09T11:19:47;22.20;99.90
42339;DHT22;27993;45.392;10.918;2022-09-09T11:24:52;22.90;99.90
42339;DHT22;27993;45.392;10.918;2022-09-09T11:27:29;23.10;99.90
42339;DHT22;27993;45.392;10.918;2022-09-09T11:30:04;23.80;99.90
42339;DHT22;27993;45.392;10.918;2022-09-09T11:38:54;25.00;99.90
42339;DHT22;27993;45.392;10.918;2022-09-09T11:41:34;25.40;99.90
42339;DHT22;27993;45.392;10.918;2022-09-09T11:44:18;25.80;99.90
42339;DHT22;27993;45.392;10.918;2022-09-09T11:46:51;26.20;99.90
42339;DHT22;27993;45.392;10.918;2022-09-09T11:49:42;26.30;99.90
42339;DHT22;27993;45.392;10.918;2022-09-09T11:52:22;26.60;99.90
42339;DHT22;27993;45.392;10.918;2022-09-09T11:54:55;26.40;99.90
42339;DHT22;27993;45.392;10.918;2022-09-09T11:57:34;26.20;99.90
42339;DHT22;27993;45.392;10.918;2022-09-09T12:00:06;26.50;99.90
42339;DHT22;27993;45.392;10.918;2022-09-09T12:02:37;26.70;99.90
42339;DHT22;27993;45.392;10.918;2022-09-09T12:05:18;26.90;99.90
42339;DHT22;27993;45.392;10.918;2022-09-09T12:07:58;27.00;99.90
42339;DHT22;27993;45.392;10.918;2022-09-09T12:10:39;27.50;99.90
42339;DHT22;27993;45.392;10.918;2022-09-09T12:13:24;27.40;99.90
42339;DHT22;27993;45.392;10.918;2022-09-09T12:15:57;27.40;99.90
42339;DHT22;27993;45.392;10.918;2022-09-09T12:18:34;27.40;99.90
42339;DHT22;27993;45.392;10.918;2022-09-09T12:23:50;27.80;99.90
42339;DHT22;27993;45.392;10.918;2022-09-09T12:26:46;27.80;99.90
42339;DHT22;27993;45.392;10.918;2022-09-09T12:32:19;27.80;99.90
42339;DHT22;27993;45.392;10.918;2022-09-09T12:34:54;27.70;99.90
42339;DHT22;27993;45.392;10.918;2022-09-09T12:37:39;27.50;99.90
42339;DHT22;27993;45.392;10.918;2022-09-09T12:40:25;27.90;99.90
42339;DHT22;27993;45.392;10.918;2022-09-09T12:42:56;27.90;99.90
42339;DHT22;27993;45.392;10.918;2022-09-09T12:45:30;27.70;99.90
42339;DHT22;27993;45.392;10.918;2022-09-09T12:48:05;27.80;99.90
42339;DHT22;27993;45.392;10.918;2022-09-09T12:50:43;28.00;99.90
42339;DHT22;27993;45.392;10.918;2022-09-09T12:53:25;28.00;99.90
42339;DHT22;27993;45.392;10.918;2022-09-09T12:55:59;28.10;99.90
42339;DHT22;27993;45.392;10.918;2022-09-09T12:58:31;28.10;99.90
42339;DHT22;27993;45.392;10.918;2022-09-09T13:01:06;28.20;99.90
42339;DHT22;27993;45.392;10.918;2022-09-09T13:03:42;28.10;99.90
42339;DHT22;27993;45.392;10.918;2022-09-09T13:06:20;28.10;99.90
42339;DHT22;27993;45.392;10.918;2022-09-09T13:08:52;28.20;99.90
42339;DHT22;27993;45.392;10.918;2022-09-09T13:11:36;28.20;99.90
42339;DHT22;27993;45.392;10.918;2022-09-09T13:14:35;28.20;99.90
42339;DHT22;27993;45.392;10.918;2022-09-09T13:17:19;28.10;99.90
42339;DHT22;27993;45.392;10.918;2022-09-09T13:19:51;27.90;99.90
42339;DHT22;27993;45.392;10.918;2022-09-09T13:22:30;27.90;99.90
42339;DHT22;27993;45.392;10.918;2022-09-09T13:25:04;28.00;99.90
42339;DHT22;27993;45.392;10.918;2022-09-09T13:27:40;28.20;99.90
42339;DHT22;27993;45.392;10.918;2022-09-09T13:30:35;28.10;99.90
42339;DHT22;27993;45.392;10.918;2022-09-09T13:38:31;28.20;99.90
42339;DHT22;27993;45.392;10.918;2022-09-09T13:41:08;28.20;99.90
42339;DHT22;27993;45.392;10.918;2022-09-09T13:43:44;28.20;99.90
42339;DHT22;27993;45.392;10.918;2022-09-09T13:46:34;28.10;99.90
42339;DHT22;27993;45.392;10.918;2022-09-09T13:51:44;28.10;99.90
42339;DHT22;27993;45.392;10.918;2022-09-09T13:54:19;28.20;99.90
42339;DHT22;27993;45.392;10.918;2022-09-09T13:56:49;28.30;99.90
42339;DHT22;27993;45.392;10.918;2022-09-09T13:59:20;28.20;99.90
42339;DHT22;27993;45.392;10.918;2022-09-09T14:01:51;28.10;99.90
42339;DHT22;27993;45.392;10.918;2022-09-09T14:04:22;28.10;99.90
42339;DHT22;27993;45.392;10.918;2022-09-09T14:06:53;28.20;99.90
42339;DHT22;27993;45.392;10.918;2022-09-09T14:09:24;28.30;99.90
42339;DHT22;27993;45.392;10.918;2022-09-09T14:11:55;28.30;99.90
42339;DHT22;27993;45.392;10.918;2022-09-09T14:14:26;28.30;99.90
42339;DHT22;27993;45.392;10.918;2022-09-09T14:16:56;28.30;99.90
42339;DHT22;27993;45.392;10.918;2022-09-09T14:19:27;28.30;99.90
42339;DHT22;27993;45.392;10.918;2022-09-09T14:21:58;28.20;99.90
42339;DHT22;27993;45.392;10.918;2022-09-09T14:24:29;28.20;99.90
42339;DHT22;27993;45.392;10.918;2022-09-09T14:26:59;27.90;99.90
42339;DHT22;27993;45.392;10.918;2022-09-09T14:29:30;28.00;99.90
42339;DHT22;27993;45.392;10.918;2022-09-09T14:32:00;28.10;99.90
42339;DHT22;27993;45.392;10.918;2022-09-09T14:34:31;28.00;99.90
42339;DHT22;27993;45.392;10.918;2022-09-09T14:37:05;28.00;99.90
42339;DHT22;27993;45.392;10.918;2022-09-09T14:39:36;28.10;99.90
42339;DHT22;27993;45.392;10.918;2022-09-09T14:42:07;28.10;99.90
42339;DHT22;27993;45.392;10.918;2022-09-09T14:44:38;28.10;99.90
42339;DHT22;27993;45.392;10.918;2022-09-09T14:47:08;28.10;99.90
42339;DHT22;27993;45.392;10.918;2022-09-09T14:49:39;27.90;99.90
42339;DHT22;27993;45.392;10.918;2022-09-09T14:52:10;27.90;99.90
42339;DHT22;27993;45.392;10.918;2022-09-09T14:54:40;27.80;99.90
42339;DHT22;27993;45.392;10.918;2022-09-09T14:57:11;27.70;99.90
42339;DHT22;27993;45.392;10.918;2022-09-09T14:59:41;27.60;99.90
42339;DHT22;27993;45.392;10.918;2022-09-09T15:02:12;27.10;99.90
42339;DHT22;27993;45.392;10.918;2022-09-09T15:04:44;26.90;99.90
42339;DHT22;27993;45.392;10.918;2022-09-09T15:07:15;26.80;99.90
42339;DHT22;27993;45.392;10.918;2022-09-09T15:09:46;26.70;99.90
42339;DHT22;27993;45.392;10.918;2022-09-09T15:12:18;26.60;99.90
42339;DHT22;27993;45.392;10.918;2022-09-09T15:14:51;26.60;99.90
42339;DHT22;27993;45.392;10.918;2022-09-09T15:17:23;26.50;99.90
42339;DHT22;27993;45.392;10.918;2022-09-09T15:19:56;26.60;99.90
42339;DHT22;27993;45.392;10.918;2022-09-09T15:22:27;26.50;99.90
42339;DHT22;27993;45.392;10.918;2022-09-09T15:24:57;26.50;99.90
42339;DHT22;27993;45.392;10.918;2022-09-09T15:27:28;26.40;99.90
42339;DHT22;27993;45.392;10.918;2022-09-09T15:30:01;26.40;99.90
42339;DHT22;27993;45.392;10.918;2022-09-09T15:32:32;26.40;99.90
42339;DHT22;27993;45.392;10.918;2022-09-09T15:35:04;26.40;99.90
42339;DHT22;27993;45.392;10.918;2022-09-09T15:37:35;26.40;99.90
42339;DHT22;27993;45.392;10.918;2022-09-09T15:40:06;26.40;99.90
42339;DHT22;27993;45.392;10.918;2022-09-09T15:42:37;26.40;99.90
42339;DHT22;27993;45.392;10.918;2022-09-09T15:45:08;26.30;99.90
42339;DHT22;27993;45.392;10.918;2022-09-09T15:47:39;26.30;99.90
42339;DHT22;27993;45.392;10.918;2022-09-09T15:50:09;26.30;99.90
42339;DHT22;27993;45.392;10.918;2022-09-09T15:52:40;26.30;99.90
42339;DHT22;27993;45.392;10.918;2022-09-09T15:55:11;26.30;99.90
42339;DHT22;27993;45.392;10.918;2022-09-09T15:57:42;26.20;99.90
42339;DHT22;27993;45.392;10.918;2022-09-09T16:00:13;26.10;99.90
42339;DHT22;27993;45.392;10.918;2022-09-09T16:02:44;26.10;99.90
42339;DHT22;27993;45.392;10.918;2022-09-09T16:05:17;26.10;99.90
42339;DHT22;27993;45.392;10.918;2022-09-09T16:07:47;26.00;99.90
42339;DHT22;27993;45.392;10.918;2022-09-09T16:10:18;26.00;99.90
42339;DHT22;27993;45.392;10.918;2022-09-09T16:12:49;26.00;99.90
42339;DHT22;27993;45.392;10.918;2022-09-09T16:15:19;25.90;99.90
42339;DHT22;27993;45.392;10.918;2022-09-09T16:17:55;25.80;99.90
42339;DHT22;27993;45.392;10.918;2022-09-09T16:20:26;25.70;99.90
42339;DHT22;27993;45.392;10.918;2022-09-09T16:22:56;25.70;99.90
42339;DHT22;27993;45.392;10.918;2022-09-09T16:25:27;25.70;99.90
42339;DHT22;27993;45.392;10.918;2022-09-09T16:27:58;25.60;99.90
42339;DHT22;27993;45.392;10.918;2022-09-09T16:30:28;25.60;99.90
42339;DHT22;27993;45.392;10.918;2022-09-09T16:32:59;25.50;99.90
42339;DHT22;27993;45.392;10.918;2022-09-09T16:35:29;25.40;99.90
42339;DHT22;27993;45.392;10.918;2022-09-09T16:38:00;25.40;99.90
42339;DHT22;27993;45.392;10.918;2022-09-09T16:40:34;25.30;99.90
42339;DHT22;27993;45.392;10.918;2022-09-09T16:43:05;25.40;99.90
42339;DHT22;27993;45.392;10.918;2022-09-09T16:45:42;25.30;99.90
42339;DHT22;27993;45.392;10.918;2022-09-09T16:48:12;25.20;99.90
42339;DHT22;27993;45.392;10.918;2022-09-09T16:50:43;25.20;99.90
42339;DHT22;27993;45.392;10.918;2022-09-09T16:53:14;25.10;99.90
42339;DHT22;27993;45.392;10.918;2022-09-09T16:55:45;25.10;99.90
42339;DHT22;27993;45.392;10.918;2022-09-09T16:58:16;25.00;99.90
42339;DHT22;27993;45.392;10.918;2022-09-09T17:00:46;25.00;99.90
42339;DHT22;27993;45.392;10.918;2022-09-09T17:03:18;25.00;99.90
42339;DHT22;27993;45.392;10.918;2022-09-09T17:05:48;24.90;99.90
42339;DHT22;27993;45.392;10.918;2022-09-09T17:08:19;24.80;99.90
42339;DHT22;27993;45.392;10.918;2022-09-09T17:10:50;24.70;99.90
42339;DHT22;27993;45.392;10.918;2022-09-09T17:13:21;24.70;99.90
42339;DHT22;27993;45.392;10.918;2022-09-09T17:15:52;24.60;99.90
42339;DHT22;27993;45.392;10.918;2022-09-09T17:18:22;24.50;99.90
42339;DHT22;27993;45.392;10.918;2022-09-09T17:21:04;24.50;99.90
42339;DHT22;27993;45.392;10.918;2022-09-09T17:23:35;24.40;99.90
42339;DHT22;27993;45.392;10.918;2022-09-09T17:26:14;24.40;99.90
42339;DHT22;27993;45.392;10.918;2022-09-09T17:28:45;24.30;99.90
42339;DHT22;27993;45.392;10.918;2022-09-09T17:31:17;24.20;99.90
42339;DHT22;27993;45.392;10.918;2022-09-09T17:33:51;24.20;99.90
42339;DHT22;27993;45.392;10.918;2022-09-09T17:36:31;24.20;99.90